sensor_id;sensor_type;location;lat;lon;timestamp;pressure;altitude;pressure_sealevel;temperature;humidity
12793;BME280;6460;42.684;23.260;2022-10-22T00:11:23;95421.22;;;9.56;87.49
12793;BME280;6460;42.684;23.260;2022-10-22T01:00:56;95391.19;;;8.63;93.43
12793;BME280;6460;42.684;23.260;2022-10-22T02:19:18;95327.75;;;8.76;91.60
12793;BME280;6460;42.684;23.260;2022-10-22T04:48:50;95321.09;;;8.82;91.26
12793;BME280;6460;42.684;23.260;2022-10-22T05:04:16;95333.53;;;9.07;90.86
12793;BME280;6460;42.684;23.260;2022-10-22T05:37:48;95362.84;;;9.12;91.50
12793;BME280;6460;42.684;23.260;2022-10-22T05:40:19;95361.88;;;9.37;93.12
12793;BME280;6460;42.684;23.260;2022-10-22T05:42:46;95363.72;;;9.57;93.43
12793;BME280;6460;42.684;23.260;2022-10-22T05:45:13;95358.13;;;9.83;91.72
12793;BME280;6460;42.684;23.260;2022-10-22T05:47:41;95362.75;;;9.95;91.49
12793;BME280;6460;42.684;23.260;2022-10-22T05:50:08;95361.19;;;10.06;90.62
12793;BME280;6460;42.684;23.260;2022-10-22T05:52:35;95358.94;;;10.29;89.00
12793;BME280;6460;42.684;23.260;2022-10-22T05:55:05;95368.22;;;10.43;88.64
12793;BME280;6460;42.684;23.260;2022-10-22T05:57:32;95359.84;;;10.45;87.78
12793;BME280;6460;42.684;23.260;2022-10-22T06:00:00;95363.09;;;10.50;84.74
12793;BME280;6460;42.684;23.260;2022-10-22T06:02:27;95363.75;;;10.59;88.40
12793;BME280;6460;42.684;23.260;2022-10-22T06:04:54;95365.09;;;10.53;88.38
12793;BME280;6460;42.684;23.260;2022-10-22T06:07:21;95377.09;;;10.80;85.68
12793;BME280;6460;42.684;23.260;2022-10-22T06:09:49;95373.41;;;10.73;85.05
12793;BME280;6460;42.684;23.260;2022-10-22T06:12:19;95369.94;;;10.72;85.38
12793;BME280;6460;42.684;23.260;2022-10-22T06:14:47;95371.25;;;11.14;84.53
12793;BME280;6460;42.684;23.260;2022-10-22T06:17:14;95375.16;;;11.29;82.08
12793;BME280;6460;42.684;23.260;2022-10-22T06:19:41;95375.34;;;11.36;81.00
12793;BME280;6460;42.684;23.260;2022-10-22T06:22:08;95376.88;;;11.49;80.90
12793;BME280;6460;42.684;23.260;2022-10-22T06:24:35;95371.50;;;11.49;81.04
12793;BME280;6460;42.684;23.260;2022-10-22T06:27:03;95366.75;;;11.58;80.74
12793;BME280;6460;42.684;23.260;2022-10-22T06:29:31;95366.28;;;11.68;79.42
12793;BME280;6460;42.684;23.260;2022-10-22T06:31:59;95377.41;;;11.67;80.67
12793;BME280;6460;42.684;23.260;2022-10-22T06:34:26;95379.88;;;11.72;79.95
12793;BME280;6460;42.684;23.260;2022-10-22T06:36:53;95383.28;;;11.85;79.50
12793;BME280;6460;42.684;23.260;2022-10-22T06:39:20;95374.28;;;11.93;79.79
12793;BME280;6460;42.684;23.260;2022-10-22T06:41:48;95366.25;;;12.08;80.01
12793;BME280;6460;42.684;23.260;2022-10-22T06:44:16;95375.19;;;12.12;79.22
12793;BME280;6460;42.684;23.260;2022-10-22T06:46:48;95372.16;;;12.14;79.05
12793;BME280;6460;42.684;23.260;2022-10-22T06:49:16;95375.28;;;12.32;78.93
12793;BME280;6460;42.684;23.260;2022-10-22T06:51:44;95378.03;;;12.47;78.58
12793;BME280;6460;42.684;23.260;2022-10-22T06:54:11;95372.38;;;12.52;77.73
12793;BME280;6460;42.684;23.260;2022-10-22T06:56:38;95380.03;;;12.66;77.00
12793;BME280;6460;42.684;23.260;2022-10-22T06:59:06;95379.06;;;12.58;77.48
12793;BME280;6460;42.684;23.260;2022-10-22T07:01:33;95390.03;;;12.65;78.06
12793;BME280;6460;42.684;23.260;2022-10-22T07:04:02;95384.13;;;12.76;77.90
12793;BME280;6460;42.684;23.260;2022-10-22T07:06:29;95377.13;;;12.90;77.16
12793;BME280;6460;42.684;23.260;2022-10-22T07:08:57;95369.50;;;12.92;79.24
12793;BME280;6460;42.684;23.260;2022-10-22T07:11:26;95366.44;;;13.09;75.73
12793;BME280;6460;42.684;23.260;2022-10-22T07:13:54;95372.19;;;12.92;74.66
12793;BME280;6460;42.684;23.260;2022-10-22T07:16:21;95381.84;;;12.78;76.74
12793;BME280;6460;42.684;23.260;2022-10-22T07:18:49;95376.53;;;12.81;77.92
12793;BME280;6460;42.684;23.260;2022-10-22T07:21:18;95366.31;;;13.06;77.66
12793;BME280;6460;42.684;23.260;2022-10-22T07:23:46;95369.88;;;13.25;75.51
12793;BME280;6460;42.684;23.260;2022-10-22T07:26:15;95366.50;;;13.48;75.13
12793;BME280;6460;42.684;23.260;2022-10-22T07:28:42;95363.72;;;13.63;73.54
12793;BME280;6460;42.684;23.260;2022-10-22T07:31:17;95364.22;;;13.69;73.74
12793;BME280;6460;42.684;23.260;2022-10-22T07:33:44;95366.34;;;13.79;72.51
12793;BME280;6460;42.684;23.260;2022-10-22T07:36:13;95367.16;;;13.79;71.64
12793;BME280;6460;42.684;23.260;2022-10-22T07:38:44;95365.56;;;13.78;72.70
12793;BME280;6460;42.684;23.260;2022-10-22T07:41:12;95359.88;;;14.03;72.19
12793;BME280;6460;42.684;23.260;2022-10-22T07:43:40;95360.78;;;14.10;71.74
12793;BME280;6460;42.684;23.260;2022-10-22T07:46:07;95356.28;;;14.18;71.22
12793;BME280;6460;42.684;23.260;2022-10-22T07:48:53;95353.25;;;14.19;74.49
12793;BME280;6460;42.684;23.260;2022-10-22T07:51:20;95350.69;;;14.07;69.87
12793;BME280;6460;42.684;23.260;2022-10-22T07:53:48;95346.91;;;14.12;70.33
12793;BME280;6460;42.684;23.260;2022-10-22T07:56:15;95350.03;;;14.33;70.28
12793;BME280;6460;42.684;23.260;2022-10-22T07:58:42;95339.78;;;14.42;71.00
12793;BME280;6460;42.684;23.260;2022-10-22T08:01:08;95343.09;;;14.58;73.14
12793;BME280;6460;42.684;23.260;2022-10-22T08:03:35;95346.59;;;14.81;69.71
12793;BME280;6460;42.684;23.260;2022-10-22T08:06:03;95342.75;;;14.60;67.46
12793;BME280;6460;42.684;23.260;2022-10-22T08:08:30;95332.91;;;14.48;69.25
12793;BME280;6460;42.684;23.260;2022-10-22T08:11:00;95323.16;;;14.66;72.11
12793;BME280;6460;42.684;23.260;2022-10-22T08:13:27;95329.06;;;14.98;70.89
12793;BME280;6460;42.684;23.260;2022-10-22T08:15:56;95332.75;;;15.13;68.76
12793;BME280;6460;42.684;23.260;2022-10-22T08:18:23;95335.06;;;15.41;66.61
12793;BME280;6460;42.684;23.260;2022-10-22T08:20:50;95324.81;;;15.27;66.93
12793;BME280;6460;42.684;23.260;2022-10-22T08:25:52;95313.34;;;15.63;65.15
12793;BME280;6460;42.684;23.260;2022-10-22T08:46:49;95312.41;;;16.22;63.00
12793;BME280;6460;42.684;23.260;2022-10-22T08:49:20;95310.75;;;16.51;62.00
12793;BME280;6460;42.684;23.260;2022-10-22T08:51:48;95311.66;;;16.62;60.52
12793;BME280;6460;42.684;23.260;2022-10-22T08:54:24;95316.72;;;16.67;60.35
12793;BME280;6460;42.684;23.260;2022-10-22T08:57:04;95316.06;;;16.81;59.72
12793;BME280;6460;42.684;23.260;2022-10-22T08:59:40;95311.88;;;16.90;59.10
12793;BME280;6460;42.684;23.260;2022-10-22T09:02:23;95309.66;;;17.07;59.09
12793;BME280;6460;42.684;23.260;2022-10-22T09:07:26;95308.13;;;17.13;59.38
12793;BME280;6460;42.684;23.260;2022-10-22T09:09:55;95305.13;;;17.32;57.31
12793;BME280;6460;42.684;23.260;2022-10-22T09:12:26;95297.84;;;17.50;57.18
12793;BME280;6460;42.684;23.260;2022-10-22T09:14:54;95301.34;;;17.51;57.00
12793;BME280;6460;42.684;23.260;2022-10-22T09:17:29;95301.50;;;17.82;54.94
12793;BME280;6460;42.684;23.260;2022-10-22T09:22:39;95293.53;;;17.42;56.31
12793;BME280;6460;42.684;23.260;2022-10-22T09:25:20;95285.16;;;17.75;56.62
12793;BME280;6460;42.684;23.260;2022-10-22T09:27:47;95278.25;;;18.10;54.00
12793;BME280;6460;42.684;23.260;2022-10-22T09:30:16;95275.13;;;18.01;54.34
12793;BME280;6460;42.684;23.260;2022-10-22T09:32:45;95286.47;;;17.30;56.47
12793;BME280;6460;42.684;23.260;2022-10-22T09:35:12;95280.53;;;17.83;56.29
12793;BME280;6460;42.684;23.260;2022-10-22T09:37:47;95275.91;;;18.19;54.77
12793;BME280;6460;42.684;23.260;2022-10-22T09:40:15;95279.50;;;18.58;52.39
12793;BME280;6460;42.684;23.260;2022-10-22T09:42:43;95272.84;;;18.38;53.21
12793;BME280;6460;42.684;23.260;2022-10-22T09:45:20;95252.59;;;19.13;52.33
12793;BME280;6460;42.684;23.260;2022-10-22T09:48:03;95249.44;;;19.22;50.41
12793;BME280;6460;42.684;23.260;2022-10-22T09:50:40;95245.44;;;19.65;49.16
12793;BME280;6460;42.684;23.260;2022-10-22T09:53:12;95248.88;;;19.69;49.96
12793;BME280;6460;42.684;23.260;2022-10-22T09:55:41;95248.00;;;19.93;48.68
12793;BME280;6460;42.684;23.260;2022-10-22T09:58:10;95246.94;;;19.73;49.17
12793;BME280;6460;42.684;23.260;2022-10-22T10:00:38;95239.53;;;20.36;47.28
12793;BME280;6460;42.684;23.260;2022-10-22T10:03:14;95232.41;;;20.52;45.44
12793;BME280;6460;42.684;23.260;2022-10-22T10:05:45;95229.31;;;20.47;46.58
12793;BME280;6460;42.684;23.260;2022-10-22T10:08:14;95228.06;;;20.55;47.37
12793;BME280;6460;42.684;23.260;2022-10-22T10:10:46;95232.31;;;20.63;46.30
12793;BME280;6460;42.684;23.260;2022-10-22T10:13:30;95225.34;;;20.99;44.98
12793;BME280;6460;42.684;23.260;2022-10-22T10:16:08;95227.28;;;21.02;45.33
12793;BME280;6460;42.684;23.260;2022-10-22T10:18:50;95220.34;;;20.91;46.99
12793;BME280;6460;42.684;23.260;2022-10-22T10:21:28;95212.72;;;20.72;44.29
12793;BME280;6460;42.684;23.260;2022-10-22T10:24:02;95221.06;;;20.57;45.33
12793;BME280;6460;42.684;23.260;2022-10-22T10:26:36;95213.69;;;20.51;45.95
12793;BME280;6460;42.684;23.260;2022-10-22T10:29:14;95208.41;;;20.74;45.70
12793;BME280;6460;42.684;23.260;2022-10-22T10:32:01;95202.47;;;20.83;45.09
12793;BME280;6460;42.684;23.260;2022-10-22T10:34:36;95210.31;;;20.77;45.62
12793;BME280;6460;42.684;23.260;2022-10-22T10:37:16;95200.25;;;21.12;45.25
12793;BME280;6460;42.684;23.260;2022-10-22T10:39:57;95189.81;;;20.99;44.81
12793;BME280;6460;42.684;23.260;2022-10-22T10:42:32;95184.28;;;21.71;43.16
12793;BME280;6460;42.684;23.260;2022-10-22T10:45:10;95183.19;;;21.64;44.31
12793;BME280;6460;42.684;23.260;2022-10-22T10:47:59;95179.44;;;22.08;42.40
12793;BME280;6460;42.684;23.260;2022-10-22T10:50:35;95173.63;;;22.06;41.86
12793;BME280;6460;42.684;23.260;2022-10-22T10:53:13;95166.03;;;22.41;40.95
12793;BME280;6460;42.684;23.260;2022-10-22T10:55:53;95154.41;;;22.56;40.56
12793;BME280;6460;42.684;23.260;2022-10-22T10:58:32;95154.19;;;22.47;41.10
12793;BME280;6460;42.684;23.260;2022-10-22T11:01:11;95135.03;;;22.71;40.49
12793;BME280;6460;42.684;23.260;2022-10-22T11:03:57;95139.06;;;23.05;39.97
12793;BME280;6460;42.684;23.260;2022-10-22T11:06:32;95126.13;;;23.26;39.93
12793;BME280;6460;42.684;23.260;2022-10-22T11:09:04;95123.13;;;23.56;38.85
12793;BME280;6460;42.684;23.260;2022-10-22T11:11:35;95120.75;;;23.58;38.61
12793;BME280;6460;42.684;23.260;2022-10-22T11:14:11;95117.44;;;23.27;39.04
12793;BME280;6460;42.684;23.260;2022-10-22T11:16:43;95111.81;;;23.34;39.13
12793;BME280;6460;42.684;23.260;2022-10-22T11:19:16;95098.22;;;23.66;38.30
12793;BME280;6460;42.684;23.260;2022-10-22T11:21:52;95094.97;;;24.04;36.63
12793;BME280;6460;42.684;23.260;2022-10-22T11:24:23;95097.13;;;23.96;37.72
12793;BME280;6460;42.684;23.260;2022-10-22T11:26:55;95090.28;;;24.20;36.63
12793;BME280;6460;42.684;23.260;2022-10-22T11:29:26;95097.53;;;23.95;36.39
12793;BME280;6460;42.684;23.260;2022-10-22T11:31:55;95095.59;;;23.95;37.35
12793;BME280;6460;42.684;23.260;2022-10-22T11:34:25;95083.28;;;23.84;37.68
12793;BME280;6460;42.684;23.260;2022-10-22T11:36:56;95081.88;;;24.11;37.27
12793;BME280;6460;42.684;23.260;2022-10-22T11:39:35;95082.91;;;24.17;35.47
12793;BME280;6460;42.684;23.260;2022-10-22T11:42:05;95074.94;;;24.52;36.19
12793;BME280;6460;42.684;23.260;2022-10-22T11:44:45;95065.66;;;24.62;35.13
12793;BME280;6460;42.684;23.260;2022-10-22T11:47:19;95072.03;;;24.59;35.67
12793;BME280;6460;42.684;23.260;2022-10-22T11:49:56;95073.69;;;24.85;35.53
12793;BME280;6460;42.684;23.260;2022-10-22T11:52:36;95065.00;;;24.42;35.11
12793;BME280;6460;42.684;23.260;2022-10-22T11:55:31;95065.28;;;24.76;35.26
12793;BME280;6460;42.684;23.260;2022-10-22T11:58:00;95059.22;;;24.97;35.14
12793;BME280;6460;42.684;23.260;2022-10-22T12:00:33;95065.19;;;25.21;33.83
12793;BME280;6460;42.684;23.260;2022-10-22T12:03:02;95064.75;;;25.22;33.56
12793;BME280;6460;42.684;23.260;2022-10-22T12:05:40;95064.34;;;25.37;33.74
12793;BME280;6460;42.684;23.260;2022-10-22T12:08:20;95059.59;;;25.37;32.74
12793;BME280;6460;42.684;23.260;2022-10-22T12:10:55;95058.44;;;25.51;33.36
12793;BME280;6460;42.684;23.260;2022-10-22T12:13:25;95049.81;;;25.49;32.76
12793;BME280;6460;42.684;23.260;2022-10-22T12:15:55;95046.13;;;25.68;32.97
12793;BME280;6460;42.684;23.260;2022-10-22T12:18:25;95047.19;;;25.70;32.88
12793;BME280;6460;42.684;23.260;2022-10-22T12:20:53;95046.41;;;25.83;31.93
12793;BME280;6460;42.684;23.260;2022-10-22T12:23:27;95038.63;;;25.81;32.36
12793;BME280;6460;42.684;23.260;2022-10-22T12:25:55;95040.13;;;25.82;31.98
12793;BME280;6460;42.684;23.260;2022-10-22T12:28:23;95039.16;;;25.76;32.32
12793;BME280;6460;42.684;23.260;2022-10-22T12:30:50;95037.63;;;25.88;32.20
12793;BME280;6460;42.684;23.260;2022-10-22T12:33:19;95031.34;;;25.62;32.08
12793;BME280;6460;42.684;23.260;2022-10-22T12:35:48;95029.00;;;25.86;31.81
12793;BME280;6460;42.684;23.260;2022-10-22T12:38:19;95024.72;;;25.97;32.02
12793;BME280;6460;42.684;23.260;2022-10-22T12:40:49;95024.03;;;26.18;31.18
12793;BME280;6460;42.684;23.260;2022-10-22T12:43:19;95020.03;;;26.32;31.71
12793;BME280;6460;42.684;23.260;2022-10-22T12:45:50;95021.63;;;26.42;31.72
12793;BME280;6460;42.684;23.260;2022-10-22T12:48:20;95031.00;;;26.45;31.06
12793;BME280;6460;42.684;23.260;2022-10-22T12:50:50;95018.44;;;26.44;31.21
12793;BME280;6460;42.684;23.260;2022-10-22T12:53:21;95005.75;;;26.68;30.98
12793;BME280;6460;42.684;23.260;2022-10-22T12:55:53;95007.03;;;26.76;30.48
12793;BME280;6460;42.684;23.260;2022-10-22T12:58:25;95006.03;;;26.83;29.82
12793;BME280;6460;42.684;23.260;2022-10-22T13:00:54;95016.88;;;26.77;30.79
12793;BME280;6460;42.684;23.260;2022-10-22T13:03:29;95006.13;;;26.79;30.57
12793;BME280;6460;42.684;23.260;2022-10-22T13:06:11;94999.28;;;26.83;31.05
12793;BME280;6460;42.684;23.260;2022-10-22T13:08:39;95003.03;;;26.90;30.44
12793;BME280;6460;42.684;23.260;2022-10-22T13:11:09;95002.63;;;27.00;30.51
12793;BME280;6460;42.684;23.260;2022-10-22T13:13:42;95004.75;;;26.96;30.49
12793;BME280;6460;42.684;23.260;2022-10-22T13:16:15;94995.84;;;26.92;30.15
12793;BME280;6460;42.684;23.260;2022-10-22T13:18:43;94998.94;;;27.03;30.42
12793;BME280;6460;42.684;23.260;2022-10-22T13:21:22;94984.84;;;27.01;30.03
12793;BME280;6460;42.684;23.260;2022-10-22T13:23:54;94981.63;;;27.03;29.98
12793;BME280;6460;42.684;23.260;2022-10-22T13:26:24;94981.63;;;27.03;30.11
12793;BME280;6460;42.684;23.260;2022-10-22T13:28:57;94981.50;;;26.41;30.31
12793;BME280;6460;42.684;23.260;2022-10-22T13:31:27;94983.56;;;26.15;30.79
12793;BME280;6460;42.684;23.260;2022-10-22T13:33:59;94990.34;;;25.89;31.16
12793;BME280;6460;42.684;23.260;2022-10-22T13:36:31;94989.53;;;26.01;31.19
12793;BME280;6460;42.684;23.260;2022-10-22T13:38:58;94986.91;;;25.98;31.28
12793;BME280;6460;42.684;23.260;2022-10-22T13:41:28;94985.75;;;25.73;32.35
12793;BME280;6460;42.684;23.260;2022-10-22T13:43:57;94989.72;;;25.60;32.99
12793;BME280;6460;42.684;23.260;2022-10-22T13:46:25;94986.28;;;25.31;32.45
12793;BME280;6460;42.684;23.260;2022-10-22T13:48:54;94987.06;;;25.18;33.17
12793;BME280;6460;42.684;23.260;2022-10-22T13:51:30;94987.50;;;25.04;33.60
12793;BME280;6460;42.684;23.260;2022-10-22T13:53:59;94991.53;;;24.87;34.15
12793;BME280;6460;42.684;23.260;2022-10-22T13:56:29;94994.00;;;24.40;34.57
12793;BME280;6460;42.684;23.260;2022-10-22T13:58:56;94984.06;;;24.30;34.75
12793;BME280;6460;42.684;23.260;2022-10-22T14:01:25;94988.09;;;24.26;35.03
12793;BME280;6460;42.684;23.260;2022-10-22T14:03:54;94979.91;;;24.38;34.98
12793;BME280;6460;42.684;23.260;2022-10-22T14:06:23;94976.28;;;24.41;35.65
12793;BME280;6460;42.684;23.260;2022-10-22T14:08:56;94978.38;;;24.66;35.57
12793;BME280;6460;42.684;23.260;2022-10-22T14:11:24;94981.47;;;24.81;35.03
12793;BME280;6460;42.684;23.260;2022-10-22T14:13:53;94990.31;;;24.88;35.37
12793;BME280;6460;42.684;23.260;2022-10-22T14:16:23;94973.75;;;25.04;34.22
12793;BME280;6460;42.684;23.260;2022-10-22T14:18:50;94982.22;;;25.22;35.08
12793;BME280;6460;42.684;23.260;2022-10-22T14:21:18;94976.94;;;25.15;35.27
12793;BME280;6460;42.684;23.260;2022-10-22T14:23:46;94971.44;;;25.15;34.83
12793;BME280;6460;42.684;23.260;2022-10-22T14:26:20;94973.63;;;24.95;34.12
12793;BME280;6460;42.684;23.260;2022-10-22T14:28:48;94962.84;;;25.01;34.42
12793;BME280;6460;42.684;23.260;2022-10-22T14:31:17;94962.41;;;25.27;33.99
12793;BME280;6460;42.684;23.260;2022-10-22T14:33:45;94966.81;;;25.38;34.51
12793;BME280;6460;42.684;23.260;2022-10-22T14:36:15;94967.47;;;25.16;35.19
12793;BME280;6460;42.684;23.260;2022-10-22T14:38:45;94964.91;;;24.84;35.67
12793;BME280;6460;42.684;23.260;2022-10-22T14:41:18;94966.69;;;24.62;36.32
12793;BME280;6460;42.684;23.260;2022-10-22T14:43:46;94969.84;;;24.48;36.54
12793;BME280;6460;42.684;23.260;2022-10-22T14:46:16;94960.34;;;24.36;36.48
12793;BME280;6460;42.684;23.260;2022-10-22T14:48:45;94963.53;;;23.90;38.69
12793;BME280;6460;42.684;23.260;2022-10-22T14:51:13;94963.47;;;23.77;39.30
12793;BME280;6460;42.684;23.260;2022-10-22T14:53:41;94967.59;;;23.69;40.29
12793;BME280;6460;42.684;23.260;2022-10-22T14:56:10;94963.81;;;23.63;41.27
12793;BME280;6460;42.684;23.260;2022-10-22T14:58:38;94966.88;;;23.65;39.03
12793;BME280;6460;42.684;23.260;2022-10-22T15:01:06;94965.69;;;23.66;38.77
12793;BME280;6460;42.684;23.260;2022-10-22T15:03:33;94974.38;;;23.48;39.51
12793;BME280;6460;42.684;23.260;2022-10-22T15:06:02;94968.22;;;23.25;40.15
12793;BME280;6460;42.684;23.260;2022-10-22T15:08:30;94964.03;;;22.64;41.71
12793;BME280;6460;42.684;23.260;2022-10-22T15:10:58;94968.34;;;22.46;42.04
12793;BME280;6460;42.684;23.260;2022-10-22T15:13:26;94968.88;;;22.37;42.60
12793;BME280;6460;42.684;23.260;2022-10-22T15:15:54;94967.97;;;22.44;44.19
12793;BME280;6460;42.684;23.260;2022-10-22T15:18:21;94970.09;;;21.70;46.22
12793;BME280;6460;42.684;23.260;2022-10-22T15:20:58;94981.63;;;21.58;45.95
12793;BME280;6460;42.684;23.260;2022-10-22T15:23:27;94983.59;;;21.34;47.16
12793;BME280;6460;42.684;23.260;2022-10-22T15:25:54;94984.03;;;20.01;51.09
12793;BME280;6460;42.684;23.260;2022-10-22T15:28:23;94978.03;;;20.54;49.95
12793;BME280;6460;42.684;23.260;2022-10-22T15:30:54;94977.25;;;20.53;50.23
12793;BME280;6460;42.684;23.260;2022-10-22T15:33:21;94979.63;;;20.14;51.50
12793;BME280;6460;42.684;23.260;2022-10-22T15:35:48;94987.97;;;20.00;51.76
12793;BME280;6460;42.684;23.260;2022-10-22T15:38:14;94989.22;;;19.88;53.38
12793;BME280;6460;42.684;23.260;2022-10-22T15:40:43;94985.66;;;19.95;53.40
12793;BME280;6460;42.684;23.260;2022-10-22T15:43:10;94988.09;;;19.38;55.18
12793;BME280;6460;42.684;23.260;2022-10-22T15:45:38;94983.88;;;19.30;55.07
12793;BME280;6460;42.684;23.260;2022-10-22T15:48:05;94995.19;;;19.25;55.35
12793;BME280;6460;42.684;23.260;2022-10-22T15:50:36;94991.63;;;19.35;55.21
12793;BME280;6460;42.684;23.260;2022-10-22T15:53:04;94995.69;;;19.06;56.41
12793;BME280;6460;42.684;23.260;2022-10-22T15:55:31;94998.56;;;18.84;57.26
12793;BME280;6460;42.684;23.260;2022-10-22T15:58:02;94996.69;;;18.71;56.67
12793;BME280;6460;42.684;23.260;2022-10-22T16:00:30;95008.59;;;17.90;57.80
12793;BME280;6460;42.684;23.260;2022-10-22T16:02:57;95007.69;;;18.35;59.41
12793;BME280;6460;42.684;23.260;2022-10-22T16:05:26;95020.22;;;18.12;59.10
12793;BME280;6460;42.684;23.260;2022-10-22T16:07:53;95027.22;;;18.09;57.08
12793;BME280;6460;42.684;23.260;2022-10-22T16:10:21;95021.41;;;17.54;57.76
12793;BME280;6460;42.684;23.260;2022-10-22T16:12:48;95026.41;;;17.24;59.35
12793;BME280;6460;42.684;23.260;2022-10-22T16:15:20;95029.47;;;16.98;61.99
12793;BME280;6460;42.684;23.260;2022-10-22T16:17:47;95028.78;;;17.43;61.00
12793;BME280;6460;42.684;23.260;2022-10-22T16:20:14;95026.06;;;17.50;61.13
12793;BME280;6460;42.684;23.260;2022-10-22T16:22:41;95024.16;;;17.61;61.04
12793;BME280;6460;42.684;23.260;2022-10-22T16:25:08;95035.72;;;17.12;62.48
12793;BME280;6460;42.684;23.260;2022-10-22T16:27:36;95033.03;;;17.23;62.75
12793;BME280;6460;42.684;23.260;2022-10-22T16:30:04;95029.13;;;17.17;62.81
12793;BME280;6460;42.684;23.260;2022-10-22T16:32:33;95025.66;;;17.20;63.00
12793;BME280;6460;42.684;23.260;2022-10-22T16:35:00;95026.44;;;17.27;63.05
12793;BME280;6460;42.684;23.260;2022-10-22T16:37:28;95011.69;;;17.53;62.07
12793;BME280;6460;42.684;23.260;2022-10-22T16:39:55;95022.56;;;17.42;62.61
12793;BME280;6460;42.684;23.260;2022-10-22T16:42:23;95025.66;;;17.27;62.63
12793;BME280;6460;42.684;23.260;2022-10-22T16:44:50;95020.22;;;17.13;63.71
12793;BME280;6460;42.684;23.260;2022-10-22T16:47:17;95017.81;;;16.79;64.16
12793;BME280;6460;42.684;23.260;2022-10-22T16:49:46;95013.22;;;17.19;62.69
12793;BME280;6460;42.684;23.260;2022-10-22T16:52:13;95021.00;;;17.10;62.93
12793;BME280;6460;42.684;23.260;2022-10-22T16:54:40;95013.94;;;16.84;64.09
12793;BME280;6460;42.684;23.260;2022-10-22T16:57:07;95012.44;;;17.15;62.65
12793;BME280;6460;42.684;23.260;2022-10-22T16:59:36;95010.13;;;17.13;63.22
12793;BME280;6460;42.684;23.260;2022-10-22T17:02:04;95013.22;;;17.12;63.85
12793;BME280;6460;42.684;23.260;2022-10-22T17:04:32;95022.53;;;17.04;65.07
12793;BME280;6460;42.684;23.260;2022-10-22T17:07:01;95013.63;;;17.31;63.27
12793;BME280;6460;42.684;23.260;2022-10-22T17:09:28;95010.03;;;16.71;63.27
12793;BME280;6460;42.684;23.260;2022-10-22T17:11:56;95011.22;;;16.80;63.74
12793;BME280;6460;42.684;23.260;2022-10-22T17:14:23;95002.31;;;16.90;62.61
12793;BME280;6460;42.684;23.260;2022-10-22T17:16:50;95000.00;;;16.96;62.62
12793;BME280;6460;42.684;23.260;2022-10-22T17:19:19;95012.78;;;16.92;64.70
12793;BME280;6460;42.684;23.260;2022-10-22T17:21:47;95014.75;;;16.99;65.09
12793;BME280;6460;42.684;23.260;2022-10-22T17:24:17;95027.09;;;16.71;65.79
12793;BME280;6460;42.684;23.260;2022-10-22T17:26:44;95023.66;;;16.92;64.45
12793;BME280;6460;42.684;23.260;2022-10-22T17:29:12;95024.81;;;16.87;65.42
12793;BME280;6460;42.684;23.260;2022-10-22T17:31:39;95020.56;;;16.90;64.92
12793;BME280;6460;42.684;23.260;2022-10-22T17:34:10;95013.94;;;16.80;64.48
12793;BME280;6460;42.684;23.260;2022-10-22T17:36:41;95017.53;;;16.16;64.64
12793;BME280;6460;42.684;23.260;2022-10-22T17:39:14;95022.25;;;16.29;63.75
12793;BME280;6460;42.684;23.260;2022-10-22T17:41:43;95020.47;;;15.93;63.88
12793;BME280;6460;42.684;23.260;2022-10-22T17:44:11;95029.72;;;15.81;64.30
12793;BME280;6460;42.684;23.260;2022-10-22T17:46:38;95024.28;;;15.81;64.39
12793;BME280;6460;42.684;23.260;2022-10-22T17:49:12;95022.38;;;15.82;64.64
12793;BME280;6460;42.684;23.260;2022-10-22T17:51:41;95028.25;;;15.95;65.69
12793;BME280;6460;42.684;23.260;2022-10-22T17:54:08;95024.13;;;16.22;63.86
12793;BME280;6460;42.684;23.260;2022-10-22T17:56:35;95023.44;;;16.35;63.06
12793;BME280;6460;42.684;23.260;2022-10-22T17:59:06;95026.19;;;16.42;63.56
12793;BME280;6460;42.684;23.260;2022-10-22T18:01:34;95024.66;;;16.49;62.37
12793;BME280;6460;42.684;23.260;2022-10-22T18:04:03;95020.00;;;16.46;62.52
12793;BME280;6460;42.684;23.260;2022-10-22T18:06:31;95021.88;;;16.34;63.80
12793;BME280;6460;42.684;23.260;2022-10-22T18:08:59;95027.25;;;16.24;65.49
12793;BME280;6460;42.684;23.260;2022-10-22T18:11:28;95017.59;;;16.37;65.63
12793;BME280;6460;42.684;23.260;2022-10-22T18:13:57;95020.25;;;16.19;66.55
12793;BME280;6460;42.684;23.260;2022-10-22T18:16:25;95032.22;;;16.15;67.19
12793;BME280;6460;42.684;23.260;2022-10-22T18:18:53;95022.19;;;16.19;66.65
12793;BME280;6460;42.684;23.260;2022-10-22T18:21:22;95028.31;;;16.02;67.24
12793;BME280;6460;42.684;23.260;2022-10-22T18:23:49;95029.13;;;16.13;67.15
12793;BME280;6460;42.684;23.260;2022-10-22T18:26:16;95037.28;;;15.58;69.76
12793;BME280;6460;42.684;23.260;2022-10-22T18:28:44;95032.00;;;15.76;68.97
12793;BME280;6460;42.684;23.260;2022-10-22T18:31:17;95041.00;;;15.43;70.61
12793;BME280;6460;42.684;23.260;2022-10-22T18:33:46;95032.75;;;15.73;69.37
12793;BME280;6460;42.684;23.260;2022-10-22T18:36:17;95030.91;;;15.40;70.28
12793;BME280;6460;42.684;23.260;2022-10-22T18:38:47;95028.06;;;15.70;69.19
12793;BME280;6460;42.684;23.260;2022-10-22T19:00:37;95075.69;;;15.27;70.63
12793;BME280;6460;42.684;23.260;2022-10-22T19:05:49;95070.94;;;15.17;74.04
12793;BME280;6460;42.684;23.260;2022-10-22T19:08:16;95076.34;;;15.17;70.46
12793;BME280;6460;42.684;23.260;2022-10-22T19:10:44;95079.44;;;14.49;77.67
12793;BME280;6460;42.684;23.260;2022-10-22T19:15:48;95082.63;;;14.54;76.93
12793;BME280;6460;42.684;23.260;2022-10-22T19:18:15;95082.13;;;14.45;78.61
12793;BME280;6460;42.684;23.260;2022-10-22T19:20:45;95073.44;;;14.62;79.67
12793;BME280;6460;42.684;23.260;2022-10-22T19:23:12;95086.59;;;14.97;80.83
12793;BME280;6460;42.684;23.260;2022-10-22T19:25:47;95082.22;;;14.86;77.23
12793;BME280;6460;42.684;23.260;2022-10-22T19:28:28;95094.81;;;15.08;74.25
12793;BME280;6460;42.684;23.260;2022-10-22T19:30:56;95085.91;;;15.07;72.19